Home > Products > Valid Products > MTR

000
SAUS46 KPQR 290853
MTRREO
METAR KREO 290852Z AUTO 19019KT 08/M03 A2960 RMK AO1 PK WND
21034/0803 SLP003 T00831033 56010





000
SAUS46 KPQR 290753
MTRREO
METAR KREO 290752Z AUTO 21024G31KT 10/M03 A2960 RMK AO1 PK WND
21031/0745 SLP000 T01001028 401830044





000
SAUS46 KPQR 290653
MTRREO
METAR KREO 290652Z AUTO 21021G31KT 10/M03 A2962 RMK AO1 PK WND
20031/0650 SLP009 T01001033





000
SAUS46 KPQR 290553
MTRREO
METAR KREO 290552Z AUTO 21026G35KT 10/M02 A2963 RMK AO1 PK WND
21035/0518 SLP017 T01001022 10133 20094 55011





000
SAUS46 KPQR 290453
MTRREO
METAR KREO 290452Z AUTO 20023G32KT 10/M01 A2963 RMK AO1 PK WND
22034/0407 SLP019 T01001011





000
SAUS46 KPQR 290353
MTRREO
METAR KREO 290352Z AUTO 21021G29KT 11/M01 A2966 RMK AO1 PK WND
21036/0303 SLP031 T01061006





000
SAUS46 KPQR 290353
MTRREO
METAR KREO 290352Z AUTO 21021G29KT 11/M01 A2966 RMK AO1 PK WND
21036/0303 SLP031 T01061006





000
SAUS46 KPQR 290253
MTRREO
METAR KREO 290252Z AUTO 21020G30KT 12/M01 A2967 RMK AO1 PK WND
21035/0216 SLP032 T01171006 58005





000
SAUS46 KPQR 290253
MTRREO
METAR KREO 290252Z AUTO 21020G30KT 12/M01 A2967 RMK AO1 PK WND
21035/0216 SLP032 T01171006 58005





000
SAUS46 KPQR 290153
MTRREO
METAR KREO 290152Z AUTO 22020G30KT 11/M01 A2969 RMK AO1 PK WND
21036/0134 SLP043 T01111006





000
SAUS46 KPQR 290153
MTRREO
METAR KREO 290152Z AUTO 22020G30KT 11/M01 A2969 RMK AO1 PK WND
21036/0134 SLP043 T01111006





000
SAUS46 KPQR 290053
MTRREO
METAR KREO 290052Z AUTO 20021G30KT 12/M06 A2968 RMK AO1 PK WND
20030/0052 SLP040 T01221056





000
SAUS46 KPQR 282353
MTRREO
METAR KREO 282352Z AUTO 20019G30KT 13/M08 A2968 RMK AO1 PK WND
21038/2312 SLP037 T01331078 10183 20133 58014





000
SAUS46 KPQR 282253
MTRREO
METAR KREO 282252Z AUTO 22021G32KT 14/M11 A2971 RMK AO1 PK WND
23037/2207 SLP046 T01391106





000
SAUS46 KPQR 282153
MTRREO
METAR KREO 282152Z AUTO 23023G32KT 15/M13 A2972 RMK AO1 PK WND
23038/2103 SLP050 T01501133





000
SAUS46 KPQR 282053
MTRREO
METAR KREO 282052Z AUTO 22023G35KT 18/M19 A2973 RMK AO1 PK WND
23039/2025 SLP051 T01831189 56021





000
SAUS46 KPQR 281955
MTRREO
METAR KREO 281952Z AUTO 21027G35KT 18/M20 A2974 RMK AO1 PK WND
20042/1919 SLP050 T01831200





000
SAUS46 KPQR 281853
MTRREO
METAR KREO 281852Z AUTO 20023G34KT 18/M17 A2977 RMK AO1 PK WND
19034/1851 SLP061 T01781167





000
SAUS46 KPQR 281754
MTRREO
METAR KREO 281752Z AUTO 17021G29KT 14/M12 A2980 RMK AO1 PK WND
17029/1750 SLP074 T01441117 10144 20067 57017





000
SAUS46 KPQR 281653
MTRREO
METAR KREO 281652Z AUTO 16013KT 12/M12 A2982 RMK AO1 SLP089
T01221117





000
SAUS46 KPQR 281558 COR
MTRREO
METAR KREO 281552Z AUTO 17013KT 11/M12 A2983 RMK AO1 SLP093
T01111117





000
SAUS46 KPQR 281555 COR
MTRREO
METAR KREO 281552Z AUTO 17013KT 11/M12 A2983 RMK AO1 SLP093
T01111117





000
SAUS46 KPQR 281554 COR
MTRREO
METAR KREO 281552Z AUTO 17013KT 11/M12 A2983 RMK AO1 SLP093
T01111117





000
SAUS46 KPQR 281553
MTRREO
METAR KREO 281552Z AUTO 17013KT 11/M12 A2983 RMK AO1 SLP093
T01111117





000
SAUS46 KPQR 281453
MTRREO
METAR KREO 281452Z AUTO 16013KT 10/M12 A2985 RMK AO1 SLP103
T01001117 58015





000
SAUS46 KPQR 281353
MTRREO
METAR KREO 281352Z AUTO 21006KT 09/M12 A2987 RMK AO1 SLP107
T00941122





000
SAUS46 KPQR 281258
MTRREO
METAR KREO 281252Z AUTO 22007KT 07/M11 A2989 RMK AO1 SLP112
T00721111





000
SAUS46 KPQR 281153
MTRREO
METAR KREO 281152Z AUTO 16011KT 10/M12 A2990 RMK AO1 SLP113
T01001117 10117 20044 58015





000
SAUS46 KPQR 281053
MTRREO
METAR KREO 281052Z AUTO 17012KT 10/M12 A2993 RMK AO1 SLP118
T01001122





000
SAUS46 KPQR 280953
MTRREO
METAR KREO 280952Z AUTO 17010KT 08/M11 A2994 RMK AO1 SLP122
T00831106





000
SAUS46 KPQR 280953
MTRREO
METAR KREO 280952Z AUTO 17010KT 08/M11 A2994 RMK AO1 SLP122
T00831106





000
SAUS46 KPQR 280853
MTRREO
METAR KREO 280852Z AUTO 20007KT 06/M11 A2996 RMK AO1 SLP132
T00611106 58010





000
SAUS46 KPQR 280753
MTRREO
METAR KREO 280752Z AUTO 20011KT 09/M12 A2998 RMK AO1 SLP133
T00941117 401890072





000
SAUS46 KPQR 280653
MTRREO
METAR KREO 280652Z AUTO 21011KT 11/M11 A2999 RMK AO1 SLP135
T01061111





000
SAUS46 KPQR 280553
MTRREO
METAR KREO 280552Z AUTO 22010KT 11/M10 A2999 RMK AO1 SLP140
T01061100 10144 20078 58003





000
SAUS46 KPQR 280453
MTRREO
METAR KREO 280452Z AUTO 23009KT 08/M06 A3000 RMK AO1 SLP150
T00781061





000
SAUS46 KPQR 280353
MTRREO
METAR KREO 280352Z AUTO 16009KT 09/M05 A2999 RMK AO1 SLP150
T00941050





000
SAUS46 KPQR 280353
MTRREO
METAR KREO 280352Z AUTO 16009KT 09/M05 A2999 RMK AO1 SLP150
T00941050





000
SAUS46 KPQR 280253
MTRREO
METAR KREO 280252Z AUTO 15012KT 09/M04 A3000 RMK AO1 SLP154
T00891044 56011





000
SAUS46 KPQR 280153
MTRREO
METAR KREO 280152Z AUTO 16011KT 11/M06 A3001 RMK AO1 SLP155
T01111056





000
SAUS46 KPQR 280153
MTRREO
METAR KREO 280152Z AUTO 16011KT 11/M06 A3001 RMK AO1 SLP155
T01111056





000
SAUS46 KPQR 280053
MTRREO
METAR KREO 280052Z AUTO 15013KT 13/M05 A3002 RMK AO1 SLP151
T01331050





000
SAUS46 KPQR 272353
MTRREO
METAR KREO 272352Z AUTO 16010KT 14/M06 A3004 RMK AO1 SLP156
T01441056 10189 20144 56013





000
SAUS46 KPQR 272253
MTRREO
METAR KREO 272252Z AUTO 17007KT 16/M06 A3005 RMK AO1 SLP159
T01611056





000
SAUS46 KPQR 272153
MTRREO
METAR KREO 272152Z AUTO 17011KT 18/M06 A3006 RMK AO1 SLP163
T01781061





000
SAUS46 KPQR 272053
MTRREO
METAR KREO 272052Z AUTO 17013KT 17/M04 A3008 RMK AO1 SLP171
T01721044 58021





000
SAUS46 KPQR 271953
MTRREO
METAR KREO 271952Z AUTO 18008KT 18/M07 A3010 RMK AO1 SLP179
T01781067





000
SAUS46 KPQR 271853
MTRREO
METAR KREO 271852Z AUTO 19010KT 18/M06 A3014 RMK AO1 SLP188
T01781061





000
SAUS46 KPQR 271753
MTRREO
METAR KREO 271752Z AUTO 16013KT 16/M04 A3015 RMK AO1 SLP197
T01561039 10161 20089 58003





000
SAUS46 KPQR 271653
MTRREO
METAR KREO 271652Z AUTO 21009KT 13/M02 A3017 RMK AO1 SLP205
T01331022





000
SAUS46 KPQR 271553
MTRREO
METAR KREO 271552Z AUTO 16011KT 11/M02 A3016 RMK AO1 SLP206
T01061022





000
SAUS46 KPQR 271453
MTRREO
METAR KREO 271452Z AUTO 15010KT 09/M02 A3016 RMK AO1 SLP209
T00891017 51001





000
SAUS46 KPQR 271353
MTRREO
METAR KREO 271352Z AUTO 13009KT 09/M02 A3016 RMK AO1 SLP208
T00891017





000
SAUS46 KPQR 271258
MTRREO
METAR KREO 271252Z AUTO 19008KT 12/M04 A3016 RMK AO1 SLP204
T01221044





000
SAUS46 KPQR 271153
MTRREO
METAR KREO 271152Z AUTO 18009KT 12/M04 A3016 RMK AO1 SLP199
T01221039 10133 20072 58002





000
SAUS46 KPQR 271053
MTRREO
METAR KREO 271052Z AUTO 18009KT 11/M03 A3017 RMK AO1 SLP199
T01111028





000
SAUS46 KPQR 270953
MTRREO
METAR KREO 270952Z AUTO 17008KT 08/M01 A3017 RMK AO1 SLP203
T00831011





000
SAUS46 KPQR 270953
MTRREO
METAR KREO 270952Z AUTO 17008KT 08/M01 A3017 RMK AO1 SLP203
T00831011





000
SAUS46 KPQR 270853
MTRREO
METAR KREO 270852Z AUTO 17007KT 09/M01 A3017 RMK AO1 SLP201
T00891011 58004





000
SAUS46 KPQR 270753
MTRREO
METAR KREO 270752Z AUTO 20003KT 09/M02 A3018 RMK AO1 SLP207
T00891017 401890033





000
SAUS46 KPQR 270653
MTRREO
METAR KREO 270652Z AUTO 18009KT 11/M02 A3017 RMK AO1 SLP208
T01111017





000
SAUS46 KPQR 270553
MTRREO
METAR KREO 270552Z AUTO 17004KT 10/M02 A3018 RMK AO1 SLP215
T01001017 10139 20094 58004





000
SAUS46 KPQR 270453
MTRREO
METAR KREO 270452Z AUTO 13011KT 10/M02 A3019 RMK AO1 SLP220
T01001017





000
SAUS46 KPQR 270453
MTRREO
METAR KREO 270452Z AUTO 13011KT 10/M02 A3019 RMK AO1 SLP220
T01001017





000
SAUS46 KPQR 270353
MTRREO
METAR KREO 270352Z AUTO 14012KT 10/M02 A3019 RMK AO1 SLP224
T01001017





000
SAUS46 KPQR 270353
MTRREO
METAR KREO 270352Z AUTO 14012KT 10/M02 A3019 RMK AO1 SLP224
T01001017





000
SAUS46 KPQR 270253
MTRREO
METAR KREO 270252Z AUTO 14013KT 11/M02 A3020 RMK AO1 SLP224
T01061017 56005





000
SAUS46 KPQR 270153
MTRREO
METAR KREO 270152Z AUTO 14008KT 11/M02 A3020 RMK AO1 SLP226
T01061017





000
SAUS46 KPQR 270053
MTRREO
METAR KREO 270052Z AUTO 14011KT 11/M01 A3021 RMK AO1 SLP230
T01111011





000
SAUS46 KPQR 262353
MTRREO
METAR KREO 262352Z AUTO 15012KT 14/M02 A3021 RMK AO1 SLP227
T01391017 10189 20100 55008





000
SAUS46 KPQR 262253
MTRREO
METAR KREO 262252Z AUTO 15015KT 16/M01 A3021 RMK AO1 WSHFT 2224
SLP223 T01611011





000
SAUS46 KPQR 262242
MTRREO
SPECI KREO 262241Z AUTO 16013KT 16/M02 A3021 RMK AO1 WSHFT 2224
T01611017





000
SAUS46 KPQR 262221
MTRREO
SPECI KREO 262220Z AUTO 22013KT 19/M03 A3022 RMK AO1 WSHFT 2203
T01891028





000
SAUS46 KPQR 262153
MTRREO
METAR KREO 262152Z AUTO 18008KT 18/M02 A3022 RMK AO1 SLP225
T01781017





000
SAUS46 KPQR 262153
MTRREO
METAR KREO 262152Z AUTO 18008KT 18/M02 A3022 RMK AO1 SLP225
T01781017





000
SAUS46 KPQR 262055
MTRREO
METAR KREO 262052Z AUTO 18007KT 17/00 A3024 RMK AO1 SLP234 T01720000
58025





000
SAUS46 KPQR 261953
MTRREO
METAR KREO 261952Z AUTO 18007KT 15/M01 A3027 RMK AO1 SLP243
T01501006





000
SAUS46 KPQR 261853
MTRREO
METAR KREO 261852Z AUTO 00000KT 12/01 A3031 RMK AO1 SLP262 T01170011





000
SAUS46 KPQR 261753
MTRREO
METAR KREO 261752Z AUTO 16010KT 10/00 A3032 RMK AO1 SLP269 T01000000
10100 20044 58001





000
SAUS46 KPQR 261653
MTRREO
METAR KREO 261652Z AUTO 15011KT 08/00 A3033 RMK AO1 SLP271 T00830000





000
SAUS46 KPQR 261553
MTRREO
METAR KREO 261552Z AUTO 18011KT 06/M01 A3033 RMK AO1 SLP271
T00611006





000
SAUS46 KPQR 261453
MTRREO
METAR KREO 261452Z AUTO 14014KT 06/M01 A3033 RMK AO1 SLP270
T00611011 58002





000
SAUS46 KPQR 261353
MTRREO
METAR KREO 261352Z AUTO 14008KT 06/M01 A3034 RMK AO1 SLP274
T00561006





000
SAUS46 KPQR 261258
MTRREO
METAR KREO 261252Z AUTO 15008KT 04/M01 A3034 RMK AO1 SLP274
T00441011





000
SAUS46 KPQR 261153
MTRREO
METAR KREO 261152Z AUTO 14011KT 05/M01 A3033 RMK AO1 SLP269
T00501006 10089 20033 56005





000
SAUS46 KPQR 261053
MTRREO
METAR KREO 261052Z AUTO 16010KT 05/00 A3034 RMK AO1 SLP269 T00500000





    US Dept of Commerce
    National Oceanic and Atmospheric Administration
    National Weather Service
    1325 East West Highway
    Silver Spring, MD 20910
    Page Author: NWS Internet Services Team
Disclaimer
Information Quality
Credits
Glossary
Privacy Policy
Freedom of Information Act (FOIA)
About Us
Career Opportunities